Time;durP1;ratioP1;P1;durP2;ratioP2;P2;SDS_P1;SDS_P2;PMS_P1;PMS_P2;Temp;Humidity;BMP_temperature;BMP_pressure;BME280_temperature;BME280_humidity;BME280_pressure;Samples;Min_cycle;Max_cycle;Signal;HPM_P1;HPM_P2
2024/03/28 00:01:33;;;;;;;18.00;12.43;;;;;;;6.67;100.00;98535.22;6171759;23;20021;-73
2024/03/28 00:03:58;;;;;;;18.83;12.30;;;;;;;6.64;100.00;98535.00;6171289;23;20028;-73
2024/03/28 00:06:25;;;;;;;16.08;10.45;;;;;;;6.62;100.00;98532.66;6146420;23;20075;-72
2024/03/28 00:08:50;;;;;;;17.15;11.00;;;;;;;6.60;100.00;98532.19;6146595;23;20017;-75
2024/03/28 00:11:16;;;;;;;21.42;13.27;;;;;;;6.55;100.00;98524.28;6147259;23;20096;-72
2024/03/28 00:13:42;;;;;;;22.20;13.23;;;;;;;6.53;100.00;98521.16;6173016;23;20033;-73
2024/03/28 00:16:09;;;;;;;20.98;13.77;;;;;;;6.49;100.00;98504.97;6147120;23;20718;-73
2024/03/28 00:18:35;;;;;;;23.13;14.45;;;;;;;6.44;100.00;98486.50;6121851;23;20017;-71
2024/03/28 00:21:04;;;;;;;20.25;12.35;;;;;;;6.40;100.00;98492.69;6146625;23;20044;-72
2024/03/28 00:23:30;;;;;;;18.52;13.02;;;;;;;6.35;100.00;98490.13;6120762;23;20021;-73
2024/03/28 00:25:58;;;;;;;23.33;13.63;;;;;;;6.33;100.00;98497.63;6122997;23;20778;-73
2024/03/28 00:28:24;;;;;;;21.33;14.52;;;;;;;6.29;100.00;98484.91;6097736;23;20025;-72
2024/03/28 00:30:51;;;;;;;;;;;;;;;6.27;100.00;98483.63;6147314;23;20469;-73
2024/03/28 00:33:17;;;;;;;18.05;12.48;;;;;;;6.24;100.00;98485.03;6121275;23;19965;-72
2024/03/28 00:35:45;;;;;;;19.45;13.00;;;;;;;6.25;100.00;98491.91;6122672;23;20008;-72
2024/03/28 00:38:12;;;;;;;18.30;12.40;;;;;;;6.24;100.00;98500.97;6121542;23;20391;-73
2024/03/28 00:40:46;;;;;;;19.00;12.40;;;;;;;6.26;100.00;98498.03;6122388;23;20021;-73
2024/03/28 00:43:13;;;;;;;20.35;11.65;;;;;;;6.26;100.00;98496.16;6145911;23;20024;-72
2024/03/28 00:45:39;;;;;;;27.15;15.85;;;;;;;6.29;100.00;98492.09;6145523;23;20021;-73
2024/03/28 00:48:08;;;;;;;21.75;13.35;;;;;;;6.26;100.00;98485.50;6145052;23;20021;-73
2024/03/28 00:50:34;;;;;;;20.70;12.57;;;;;;;6.24;100.00;98481.59;6143773;23;20036;-73
2024/03/28 00:52:59;;;;;;;23.20;14.20;;;;;;;6.24;100.00;98474.41;6172023;23;20017;-73
2024/03/28 00:55:25;;;;;;;24.88;16.10;;;;;;;6.25;100.00;98472.53;6144509;23;20020;-72
2024/03/28 00:57:51;;;;;;;24.20;15.73;;;;;;;6.29;100.00;98465.50;6121045;23;20021;-73
2024/03/28 01:00:18;;;;;;;23.98;14.40;;;;;;;6.26;100.00;98450.97;6144857;23;20019;-73
2024/03/28 01:02:43;;;;;;;23.48;16.08;;;;;;;6.29;100.00;98454.88;6144501;23;20045;-73
2024/03/28 01:05:09;;;;;;;25.80;14.00;;;;;;;6.28;100.00;98450.66;6144954;23;20040;-72
2024/03/28 01:07:35;;;;;;;23.50;13.68;;;;;;;6.28;100.00;98450.66;6170740;23;20764;-72
2024/03/28 01:10:02;;;;;;;23.27;15.15;;;;;;;6.28;100.00;98448.78;6145080;23;20024;-72
2024/03/28 01:12:28;;;;;;;23.88;15.02;;;;;;;6.28;100.00;98430.19;6144525;23;20463;-72
2024/03/28 01:14:54;;;;;;;22.38;13.93;;;;;;;6.28;100.00;98430.19;6144836;23;20071;-73
2024/03/28 01:17:20;;;;;;;;;;;;;;;6.30;100.00;98424.59;6143569;23;20015;-73
2024/03/28 01:19:45;;;;;;;24.88;15.32;;;;;;;6.29;100.00;98437.06;6120207;23;19994;-72
2024/03/28 01:22:11;;;;;;;22.10;15.13;;;;;;;6.28;100.00;98432.03;6144321;23;20028;-73
2024/03/28 01:24:36;;;;;;;24.63;15.85;;;;;;;6.31;100.00;98436.00;6120516;23;20013;-72
2024/03/28 01:27:02;;;;;;;23.50;14.27;;;;;;;6.34;100.00;98435.41;6145026;23;20067;-74
2024/03/28 01:29:28;;;;;;;23.40;14.43;;;;;;;6.36;100.00;98433.22;6144430;23;20013;-73
2024/03/28 01:31:54;;;;;;;21.75;15.43;;;;;;;6.36;100.00;98425.25;6170485;23;20016;-73
2024/03/28 01:34:19;;;;;;;23.10;15.23;;;;;;;6.34;100.00;98419.44;6118608;23;20017;-72
2024/03/28 01:36:45;;;;;;;24.23;14.70;;;;;;;6.36;100.00;98417.25;6144336;23;20055;-73
2024/03/28 01:39:11;;;;;;;25.65;15.25;;;;;;;6.36;100.00;98417.25;6170731;23;20128;-74
2024/03/28 01:41:37;;;;;;;27.80;15.32;;;;;;;6.40;100.00;98428.88;6144003;23;20336;-73
2024/03/28 01:44:02;;;;;;;26.42;17.48;;;;;;;6.42;100.00;98422.19;6116787;23;20722;-73
2024/03/28 01:46:28;;;;;;;29.13;18.17;;;;;;;6.45;100.00;98418.94;6090112;23;1259595;-71
2024/03/28 01:48:55;;;;;;;23.02;15.38;;;;;;;6.46;100.00;98411.75;6120827;23;20028;-73
2024/03/28 01:51:22;;;;;;;27.25;18.65;;;;;;;6.47;100.00;98413.31;6120896;23;20710;-73
2024/03/28 01:53:47;;;;;;;;;;;;;;;6.50;100.00;98404.72;6172936;23;20017;-73
2024/03/28 01:56:15;;;;;;;27.45;17.33;;;;;;;6.49;100.00;98403.16;6121562;23;19995;-73
2024/03/28 01:58:41;;;;;;;24.92;16.63;;;;;;;6.50;100.00;98392.25;6119842;23;20664;-72
2024/03/28 02:01:07;;;;;;;;;;;;;;;6.51;100.00;98383.19;6145508;23;20025;-73
2024/03/28 02:03:33;;;;;;;29.02;17.23;;;;;;;6.51;100.00;98377.88;6144619;23;19979;-74
2024/03/28 02:05:59;;;;;;;26.38;17.40;;;;;;;6.53;100.00;98382.88;6145306;23;20598;-71
2024/03/28 02:08:29;;;;;;;26.30;17.05;;;;;;;6.54;100.00;98379.13;6095436;23;20016;-74
2024/03/28 02:10:56;;;;;;;26.23;18.13;;;;;;;6.57;100.00;98386.50;6121522;23;20016;-71
2024/03/28 02:13:22;;;;;;;26.88;18.45;;;;;;;6.57;100.00;98381.19;6170376;23;20020;-73
2024/03/28 02:15:48;;;;;;;32.60;19.02;;;;;;;6.60;100.00;98380.59;6095709;23;20023;-73
2024/03/28 02:18:19;;;;;;;26.83;16.63;;;;;;;6.63;100.00;98379.19;6143492;23;20017;-72
2024/03/28 02:20:46;;;;;;;34.28;19.50;;;;;;;6.66;100.00;98382.03;6171886;23;20017;-73
2024/03/28 02:23:12;;;;;;;28.65;17.25;;;;;;;6.68;100.00;98377.19;6097126;23;20051;-72
2024/03/28 02:25:38;;;;;;;;;;;;;;;6.69;100.00;98381.44;6097330;23;20455;-72
2024/03/28 02:28:04;;;;;;;27.95;17.05;;;;;;;6.68;100.00;98387.84;6121135;23;20073;-73
2024/03/28 02:30:32;;;;;;;30.70;19.30;;;;;;;6.65;100.00;98372.50;6171948;23;20020;-73
2024/03/28 02:32:58;;;;;;;27.88;17.48;;;;;;;6.63;100.00;98369.34;6120578;23;20100;-73
2024/03/28 02:35:24;;;;;;;27.67;18.90;;;;;;;6.64;100.00;98368.28;6144155;23;20027;-73
2024/03/28 02:37:50;;;;;;;27.67;18.00;;;;;;;6.67;100.00;98364.22;6145487;23;20024;-73
2024/03/28 02:40:16;;;;;;;27.63;17.85;;;;;;;6.69;100.00;98362.03;6145700;23;20086;-73
2024/03/28 02:42:42;;;;;;;27.40;16.98;;;;;;;6.70;100.00;98368.91;6168800;23;20023;-73
2024/03/28 02:45:08;;;;;;;27.30;18.08;;;;;;;6.72;100.00;98372.09;6147081;23;20800;-73
2024/03/28 02:47:33;;;;;;;26.83;17.83;;;;;;;6.74;100.00;98370.69;6146107;23;20096;-73
2024/03/28 02:49:59;;;;;;;23.70;15.65;;;;;;;6.75;100.00;98372.25;6147162;23;20070;-72
2024/03/28 02:52:25;;;;;;;27.35;18.17;;;;;;;6.76;100.00;98368.50;6122793;23;20017;-72
2024/03/28 02:54:51;;;;;;;29.25;18.38;;;;;;;6.76;100.00;98363.19;6146112;23;20168;-72
2024/03/28 02:57:24;;;;;;;26.48;17.23;;;;;;;6.77;100.00;98364.78;6121207;23;20020;-73
2024/03/28 02:59:51;;;;;;;29.63;18.50;;;;;;;6.77;100.00;98350.66;6173922;23;20009;-73
2024/03/28 03:02:16;;;;;;;32.17;19.13;;;;;;;6.79;100.00;98362.59;6149434;23;20914;-74
2024/03/28 03:04:43;;;;;;;24.27;15.35;;;;;;;6.79;100.00;98359.16;6148952;23;20056;-72
2024/03/28 03:07:09;;;;;;;29.02;18.02;;;;;;;6.77;100.00;98348.00;6125394;23;20016;-74
2024/03/28 03:09:35;;;;;;;31.40;19.73;;;;;;;6.76;100.00;98357.06;6148796;23;20005;-74
2024/03/28 03:12:01;;;;;;;28.70;17.83;;;;;;;6.76;100.00;98357.84;6149799;23;20013;-74
2024/03/28 03:14:28;;;;;;;27.52;17.25;;;;;;;6.80;100.00;98360.72;6149551;23;20021;-74
2024/03/28 03:16:54;;;;;;;29.48;20.23;;;;;;;6.84;100.00;98354.50;6149676;23;20021;-73
2024/03/28 03:19:19;;;;;;;28.67;18.45;;;;;;;6.86;100.00;98366.69;6176256;23;20012;-74
2024/03/28 03:21:50;;;;;;;27.55;19.63;;;;;;;6.86;100.00;98369.38;6149143;23;20458;-73
2024/03/28 03:24:16;;;;;;;25.83;17.42;;;;;;;6.88;100.00;98369.84;6149615;23;20400;-74
2024/03/28 03:26:49;;;;;;;30.50;19.80;;;;;;;6.90;100.00;98384.41;6149573;23;20474;-74
2024/03/28 03:34:51;;;;;;;29.27;21.02;;;;;;;6.97;100.00;98378.66;6174752;23;20019;-74
2024/03/28 03:37:24;;;;;;;28.00;17.52;;;;;;;6.97;100.00;98391.97;6149764;23;20393;-74
2024/03/28 03:39:59;;;;;;;26.95;18.25;;;;;;;6.98;100.00;98396.22;6126031;23;20632;-73
2024/03/28 03:42:25;;;;;;;26.13;17.20;;;;;;;6.98;100.00;98397.00;6123463;23;20029;-74
2024/03/28 03:44:51;;;;;;;31.00;19.27;;;;;;;7.00;100.00;98388.72;6125516;23;20016;-74
2024/03/28 03:47:17;;;;;;;26.80;18.40;;;;;;;7.00;100.00;98386.06;6124610;23;20482;-73
2024/03/28 03:49:45;;;;;;;30.15;18.40;;;;;;;7.03;100.00;98385.44;6147809;23;20051;-74
2024/03/28 03:52:15;;;;;;;32.75;21.27;;;;;;;7.04;100.00;98379.78;6148898;23;20502;-74
2024/03/28 03:54:43;;;;;;;30.58;18.48;;;;;;;7.06;100.00;98376.84;6148463;23;20028;-74
2024/03/28 03:57:09;;;;;;;30.25;20.95;;;;;;;7.10;100.00;98372.47;6175340;23;20009;-73
2024/03/28 03:59:38;;;;;;;31.17;20.40;;;;;;;7.11;100.00;98368.72;6149371;23;20017;-75
2024/03/28 04:02:05;;;;;;;30.60;18.65;;;;;;;7.13;100.00;98366.56;6174768;23;20565;-74
2024/03/28 04:04:31;;;;;;;30.60;18.23;;;;;;;7.13;100.00;98350.59;6149314;23;20341;-74
2024/03/28 04:06:57;;;;;;;30.88;18.98;;;;;;;7.16;100.00;98349.97;6175672;23;20469;-74
2024/03/28 04:09:24;;;;;;;30.80;19.85;;;;;;;7.19;100.00;98348.59;6149262;23;20104;-74
2024/03/28 04:11:51;;;;;;;30.23;18.50;;;;;;;7.21;100.00;98347.19;6175240;23;20020;-74
2024/03/28 04:14:17;;;;;;;26.38;17.73;;;;;;;7.25;100.00;98350.03;6174582;23;20009;-74
2024/03/28 04:16:43;;;;;;;26.40;16.35;;;;;;;7.28;100.00;98341.44;6124460;23;20021;-75
2024/03/28 04:19:11;;;;;;;27.58;17.35;;;;;;;7.30;100.00;98356.00;6148477;23;20420;-75
2024/03/28 04:21:37;;;;;;;28.17;17.25;;;;;;;7.29;100.00;98354.44;6100735;23;20021;-76
2024/03/28 04:24:04;;;;;;;26.45;16.55;;;;;;;7.32;100.00;98348.50;6124477;23;20017;-74
2024/03/28 04:26:30;;;;;;;27.02;16.80;;;;;;;7.34;100.00;98346.31;6175807;23;20023;-74
2024/03/28 04:28:56;;;;;;;23.83;15.45;;;;;;;7.38;100.00;98344.63;6148668;23;20343;-75
2024/03/28 04:31:23;;;;;;;25.95;15.23;;;;;;;7.39;100.00;98334.75;6175908;23;20009;-75
2024/03/28 04:33:50;;;;;;;23.92;14.65;;;;;;;7.39;100.00;98332.88;6148295;23;20043;-74
2024/03/28 04:36:16;;;;;;;27.15;14.98;;;;;;;7.40;100.00;98336.31;6149457;23;20390;-75
2024/03/28 04:38:44;;;;;;;25.67;15.10;;;;;;;7.42;100.00;98338.66;6174376;23;20017;-74
2024/03/28 04:41:13;;;;;;;23.48;14.98;;;;;;;7.44;100.00;98328.50;6149548;23;20040;-75
2024/03/28 04:43:39;;;;;;;29.33;16.20;;;;;;;7.47;100.00;98333.22;6120632;23;20351;-73
2024/03/28 04:46:06;;;;;;;28.52;15.80;;;;;;;7.44;100.00;98339.13;6175577;23;20043;-74
2024/03/28 04:48:32;;;;;;;26.27;16.92;;;;;;;7.47;100.00;98335.88;6123335;23;20009;-75
2024/03/28 04:50:59;;;;;;;25.95;16.50;;;;;;;7.46;100.00;98329.00;6124829;23;20164;-73
2024/03/28 04:53:24;;;;;;;29.17;16.98;;;;;;;7.48;100.00;98334.78;6147680;23;20175;-76
2024/03/28 04:56:08;;;;;;;28.80;16.88;;;;;;;7.48;100.00;98332.13;6175596;23;20024;-74
2024/03/28 04:58:34;;;;;;;28.10;18.10;;;;;;;7.48;100.00;98329.47;6148682;23;20009;-74
2024/03/28 05:01:00;;;;;;;33.45;18.13;;;;;;;7.47;100.00;98333.22;6124532;23;20017;-74
2024/03/28 05:03:26;;;;;;;30.60;17.25;;;;;;;7.46;100.00;98331.66;6123908;23;20119;-74
2024/03/28 05:05:51;;;;;;;27.25;16.75;;;;;;;7.47;100.00;98334.00;6146771;23;20047;-74
2024/03/28 05:08:17;;;;;;;30.02;16.35;;;;;;;7.47;100.00;98322.56;6148869;23;20009;-72
2024/03/28 05:10:43;;;;;;;28.05;16.05;;;;;;;7.46;100.00;98319.13;6174341;23;20664;-72
2024/03/28 05:13:10;;;;;;;;;;;;;;;7.46;100.00;98321.00;6123708;23;20045;-74
2024/03/28 05:15:39;;;;;;;25.52;14.88;;;;;;;7.42;100.00;98314.72;6148699;23;19908;-73
2024/03/28 05:18:04;;;;;;;22.73;13.35;;;;;;;7.37;100.00;98308.41;6148639;23;20435;-74
2024/03/28 05:20:31;;;;;;;22.08;12.93;;;;;;;7.37;100.00;98300.44;6124556;23;20013;-73
2024/03/28 05:22:57;;;;;;;18.23;12.00;;;;;;;7.32;100.00;98297.13;6173219;23;20024;-73
2024/03/28 05:25:23;;;;;;;18.73;11.32;;;;;;;7.33;100.00;98307.47;6124100;23;20013;-72
2024/03/28 05:27:49;;;;;;;20.20;11.82;;;;;;;7.32;100.00;98311.22;6147662;23;20017;-72
2024/03/28 05:30:14;;;;;;;17.60;11.00;;;;;;;7.31;100.00;98309.63;6148138;23;20013;-73
2024/03/28 05:32:40;;;;;;;18.08;10.48;;;;;;;7.32;100.00;98302.47;6148054;23;20021;-72
2024/03/28 05:35:06;;;;;;;16.33;9.38;;;;;;;7.31;100.00;98314.19;6173860;23;20017;-73
2024/03/28 05:37:32;;;;;;;13.82;8.57;;;;;;;7.29;100.00;98317.16;6173281;23;20519;-74
2024/03/28 05:39:58;;;;;;;14.32;8.00;;;;;;;7.28;100.00;98315.59;6123768;23;20052;-74
2024/03/28 05:42:23;;;;;;;12.18;7.63;;;;;;;7.28;100.00;98309.47;6124164;23;20021;-74
2024/03/28 05:44:48;;;;;;;12.65;7.82;;;;;;;7.26;100.00;98307.13;6148100;23;20009;-73
2024/03/28 05:47:14;;;;;;;14.70;8.77;;;;;;;7.25;100.00;98299.47;6147968;23;20013;-72
2024/03/28 05:49:39;;;;;;;11.20;7.53;;;;;;;7.21;100.00;98304.59;6123528;23;20414;-74
2024/03/28 05:52:05;;;;;;;10.63;7.30;;;;;;;7.21;100.00;98303.81;6123628;23;20021;-73
2024/03/28 05:54:31;;;;;;;12.77;8.25;;;;;;;7.18;100.00;98291.91;6147014;23;20013;-73
2024/03/28 05:56:57;;;;;;;12.50;8.07;;;;;;;7.18;100.00;98299.09;6147159;23;20100;-73
2024/03/28 05:59:23;;;;;;;13.90;8.30;;;;;;;7.16;100.00;98291.41;6174714;23;20046;-73
2024/03/28 06:01:48;;;;;;;10.60;7.65;;;;;;;7.12;100.00;98298.47;6123178;23;20017;-72
2024/03/28 06:04:14;;;;;;;10.50;7.28;;;;;;;7.13;100.00;98291.25;6123021;23;20024;-73
2024/03/28 06:06:40;;;;;;;8.80;6.10;;;;;;;7.13;100.00;98280.59;6147835;23;20070;-74
2024/03/28 06:09:05;;;;;;;8.43;5.35;;;;;;;7.07;100.00;98278.06;6122869;23;20045;-74
2024/03/28 06:11:31;;;;;;;7.78;4.65;;;;;;;7.04;100.00;98269.91;6175286;23;20071;-74
2024/03/28 06:14:08;;;;;;;6.63;4.22;;;;;;;7.04;100.00;98267.25;6173574;23;20017;-73
2024/03/28 06:16:35;;;;;;;6.75;4.32;;;;;;;7.04;100.00;98278.66;6147883;23;20092;-73
2024/03/28 06:19:02;;;;;;;6.03;4.53;;;;;;;7.02;100.00;98285.41;6175210;23;20713;-74
2024/03/28 06:21:28;;;;;;;7.35;4.53;;;;;;;7.00;100.00;98276.94;6149838;23;20482;-74
2024/03/28 06:23:54;;;;;;;7.07;4.60;;;;;;;7.00;100.00;98284.94;6147827;23;20052;-74
2024/03/28 06:26:19;;;;;;;6.88;4.60;;;;;;;6.99;100.00;98289.47;6175648;23;20016;-73
2024/03/28 06:28:45;;;;;;;7.15;4.38;;;;;;;6.98;100.00;98279.13;6147570;23;20709;-73
2024/03/28 06:31:11;;;;;;;6.70;4.30;;;;;;;6.98;100.00;98284.47;6149177;23;20005;-73
2024/03/28 06:33:37;;;;;;;5.32;3.47;;;;;;;6.95;100.00;98279.72;6147686;23;20095;-74
2024/03/28 06:36:04;;;;;;;6.35;3.53;;;;;;;6.95;100.00;98269.09;6125699;23;20024;-74
2024/03/28 06:38:31;;;;;;;6.00;3.10;;;;;;;6.92;100.00;98280.34;6151936;23;20017;-72
2024/03/28 06:41:01;;;;;;;3.92;2.65;;;;;;;6.89;100.00;98275.63;6151076;23;20052;-73
2024/03/28 06:43:27;;;;;;;5.15;3.00;;;;;;;6.89;100.00;98273.75;6127883;23;20013;-74
2024/03/28 06:45:52;;;;;;;4.40;3.05;;;;;;;6.87;100.00;98277.81;6151455;23;20009;-74
2024/03/28 06:48:18;;;;;;;3.50;2.40;;;;;;;6.86;100.00;98281.56;6150664;23;20163;-74
2024/03/28 06:50:44;;;;;;;4.63;2.97;;;;;;;6.86;100.00;98282.34;6125842;23;20439;-76
2024/03/28 06:53:10;;;;;;;3.47;2.50;;;;;;;6.87;100.00;98277.81;6148844;23;20017;-74
2024/03/28 06:55:39;;;;;;;4.05;2.45;;;;;;;6.84;100.00;98277.34;6125500;23;20017;-74
2024/03/28 06:58:05;;;;;;;3.55;2.40;;;;;;;6.84;100.00;98281.84;6126261;23;20048;-75
2024/03/28 07:00:31;;;;;;;3.42;2.60;;;;;;;6.82;100.00;98290.13;6151718;23;20711;-74
2024/03/28 07:02:57;;;;;;;3.90;2.40;;;;;;;6.81;100.00;98290.44;6101254;23;20041;-75
2024/03/28 07:05:23;;;;;;;3.38;2.03;;;;;;;6.79;100.00;98295.28;6175292;23;20096;-74
2024/03/28 07:07:49;;;;;;;;;;;;;;;6.78;100.00;98291.84;6125027;23;20499;-73
2024/03/28 07:10:16;;;;;;;3.03;2.05;;;;;;;6.77;100.00;98306.25;6150393;23;19912;-75
2024/03/28 07:12:43;;;;;;;2.90;1.95;;;;;;;6.77;100.00;98306.25;6125894;23;20008;-74
2024/03/28 07:15:09;;;;;;;4.30;2.13;;;;;;;6.76;100.00;98309.97;6151341;23;20132;-73
2024/03/28 07:17:36;;;;;;;2.88;1.88;;;;;;;6.77;100.00;98308.91;6101623;23;20009;-74
2024/03/28 07:20:03;;;;;;;3.90;2.38;;;;;;;6.76;100.00;98303.88;6149958;23;20705;-74
2024/03/28 07:22:30;;;;;;;3.80;2.20;;;;;;;6.75;100.00;98303.09;6126642;23;20038;-74
2024/03/28 07:24:56;;;;;;;3.20;2.63;;;;;;;6.75;100.00;98308.41;6125303;23;20159;-74
2024/03/28 07:27:25;;;;;;;3.67;2.20;;;;;;;6.74;100.00;98311.38;6149684;23;20013;-74
2024/03/28 07:29:52;;;;;;;3.13;2.30;;;;;;;6.73;100.00;98299.94;6149907;23;20019;-74
2024/03/28 07:32:18;;;;;;;3.50;2.30;;;;;;;6.73;100.00;98305.28;6150015;23;20100;-73
2024/03/28 07:34:44;;;;;;;4.40;2.08;;;;;;;6.73;100.00;98310.59;6149596;23;20013;-73
2024/03/28 07:37:10;;;;;;;3.72;2.00;;;;;;;6.70;100.00;98305.88;6150069;23;20095;-72
2024/03/28 07:39:36;;;;;;;3.65;1.90;;;;;;;6.73;100.00;98299.16;6150621;23;20395;-72
2024/03/28 07:42:01;;;;;;;5.07;1.90;;;;;;;6.67;100.00;98295.06;6124670;23;20124;-71
2024/03/28 07:44:27;;;;;;;3.08;1.60;;;;;;;6.69;100.00;98298.97;6125934;23;20059;-73
2024/03/28 07:46:53;;;;;;;3.15;1.80;;;;;;;6.72;100.00;98309.03;6149692;23;20358;-73
2024/03/28 07:49:19;;;;;;;4.80;1.88;;;;;;;6.73;100.00;98294.63;6124676;23;20384;-73
2024/03/28 07:51:44;;;;;;;3.97;2.15;;;;;;;6.72;100.00;98298.38;6125156;23;20351;-72
2024/03/28 07:54:10;;;;;;;4.90;1.63;;;;;;;6.71;100.00;98302.13;6176018;23;20087;-72
2024/03/28 07:56:36;;;;;;;3.17;1.95;;;;;;;6.75;100.00;98303.09;6150477;23;20047;-72
2024/03/28 07:59:01;;;;;;;4.82;2.17;;;;;;;6.76;100.00;98309.97;6119737;23;20021;-74
2024/03/28 08:01:27;;;;;;;3.00;1.98;;;;;;;6.76;100.00;98301.22;6148921;23;20454;-73
2024/03/28 08:03:52;;;;;;;3.78;2.50;;;;;;;6.78;100.00;98291.84;6148117;23;20024;-72
2024/03/28 08:06:18;;;;;;;3.17;1.92;;;;;;;6.76;100.00;98296.66;6149387;23;20067;-72
2024/03/28 08:08:44;;;;;;;2.97;2.38;;;;;;;6.76;100.00;98299.34;6172867;23;20091;-73
2024/03/28 08:11:10;;;;;;;4.75;2.40;;;;;;;6.79;100.00;98309.38;6149620;23;20118;-73
2024/03/28 08:13:36;;;;;;;4.68;2.15;;;;;;;6.82;100.00;98307.97;6124964;23;20766;-73
2024/03/28 08:16:01;;;;;;;3.20;2.30;;;;;;;6.81;100.00;98307.19;6148479;23;20023;-74
2024/03/28 08:18:27;;;;;;;4.35;2.03;;;;;;;6.79;100.00;98309.38;6149613;23;20447;-73
2024/03/28 08:20:57;;;;;;;3.90;2.35;;;;;;;6.83;100.00;98315.66;6147743;23;20005;-74
2024/03/28 08:23:24;;;;;;;3.10;2.10;;;;;;;6.81;100.00;98317.06;6124332;23;20036;-73
2024/03/28 08:25:49;;;;;;;4.28;3.00;;;;;;;6.79;100.00;98321.91;6123035;23;20017;-74
2024/03/28 08:28:15;;;;;;;6.05;3.00;;;;;;;6.76;100.00;98319.84;6123964;23;20023;-74
2024/03/28 08:30:42;;;;;;;7.15;3.15;;;;;;;6.70;100.00;98326.34;6148438;23;20016;-75
2024/03/28 08:33:08;;;;;;;5.15;2.85;;;;;;;6.72;100.00;98334.84;6148259;23;20395;-73
2024/03/28 08:35:43;;;;;;;5.30;3.45;;;;;;;6.74;100.00;98333.44;6124112;23;20013;-73
2024/03/28 08:38:10;;;;;;;5.35;3.47;;;;;;;6.71;100.00;98335.94;6124091;23;20016;-74
2024/03/28 08:40:36;;;;;;;5.43;3.60;;;;;;;6.71;100.00;98331.41;6148764;23;20017;-73
2024/03/28 08:43:02;;;;;;;;;;;;;;;6.79;100.00;98337.88;6123542;23;20044;-74
2024/03/28 08:45:28;;;;;;;6.60;4.07;;;;;;;6.77;100.00;98335.50;6148003;23;19934;-74
2024/03/28 08:47:56;;;;;;;5.80;3.90;;;;;;;6.79;100.00;98332.53;6145025;23;20111;-73
2024/03/28 08:50:22;;;;;;;5.95;3.85;;;;;;;6.87;100.00;98334.47;6149253;23;20483;-71
2024/03/28 08:52:49;;;;;;;6.10;4.40;;;;;;;6.91;100.00;98338.09;6174432;23;20021;-72
2024/03/28 08:55:17;;;;;;;6.38;3.85;;;;;;;6.96;100.00;98329.19;6149257;23;20082;-73
2024/03/28 08:57:44;;;;;;;7.45;4.45;;;;;;;6.91;100.00;98331.97;6148784;23;20737;-73
2024/03/28 09:00:13;;;;;;;6.10;4.35;;;;;;;6.95;100.00;98335.59;6147805;23;20131;-73
2024/03/28 09:02:39;;;;;;;7.93;4.85;;;;;;;7.00;100.00;98340.81;6124045;23;20041;-74
2024/03/28 09:05:06;;;;;;;6.32;4.18;;;;;;;6.99;100.00;98334.69;6174691;23;20555;-74
2024/03/28 09:07:33;;;;;;;5.40;3.60;;;;;;;6.99;100.00;98339.25;6148176;23;20443;-74
2024/03/28 09:09:59;;;;;;;6.50;4.05;;;;;;;7.02;100.00;98346.59;6148331;23;20410;-72
2024/03/28 09:12:25;;;;;;;5.93;3.67;;;;;;;7.02;100.00;98342.06;6123984;23;20459;-72
2024/03/28 09:14:55;;;;;;;5.28;3.70;;;;;;;7.00;100.00;98351.44;6174319;23;20096;-74
2024/03/28 09:17:22;;;;;;;5.90;3.50;;;;;;;6.96;100.00;98361.13;6124759;23;20020;-72
2024/03/28 09:19:53;;;;;;;4.20;3.05;;;;;;;6.91;100.00;98358.56;6148490;23;20017;-73
2024/03/28 09:22:22;;;;;;;4.13;2.80;;;;;;;6.95;100.00;98351.56;6123088;23;20079;-73
2024/03/28 09:24:50;;;;;;;5.28;3.17;;;;;;;7.01;100.00;98339.72;6174765;23;20048;-73
2024/03/28 09:27:16;;;;;;;4.22;2.78;;;;;;;7.06;100.00;98355.56;6123628;23;20099;-74
2024/03/28 09:29:42;;;;;;;;;;;;;;;7.14;100.00;98365.47;6125886;23;20036;-75
2024/03/28 09:32:08;;;;;;;5.05;3.10;;;;;;;7.11;100.00;98371.38;6146947;23;19912;-75
2024/03/28 09:34:37;;;;;;;3.88;2.53;;;;;;;7.17;100.00;98377.38;6124179;23;20020;-75
2024/03/28 09:37:05;;;;;;;4.03;3.03;;;;;;;7.19;100.00;98381.31;6174256;23;20009;-75
2024/03/28 09:39:31;;;;;;;4.40;2.78;;;;;;;7.18;100.00;98387.75;6147804;23;20017;-75
2024/03/28 09:41:59;;;;;;;3.25;2.72;;;;;;;7.29;100.00;98381.06;6147954;23;20107;-74
2024/03/28 09:44:25;;;;;;;3.78;2.47;;;;;;;7.44;100.00;98384.41;6124349;23;20019;-76
2024/03/28 09:46:52;;;;;;;4.38;3.35;;;;;;;7.61;100.00;98381.84;6148485;23;20067;-74
2024/03/28 09:49:23;;;;;;;4.03;2.40;;;;;;;7.64;100.00;98365.22;6175015;23;20079;-75
2024/03/28 09:51:52;;;;;;;4.05;2.20;;;;;;;7.85;100.00;98358.25;6123595;23;20024;-75
2024/03/28 09:54:18;;;;;;;2.13;1.50;;;;;;;7.95;100.00;98359.84;6150198;23;20483;-75
2024/03/28 09:56:44;;;;;;;;;;;;;;;8.15;100.00;98363.81;6150498;23;20020;-73
2024/03/28 09:59:10;;;;;;;2.30;1.50;;;;;;;8.11;100.00;98373.53;6124844;23;20298;-72
2024/03/28 10:01:38;;;;;;;;;;;;;;;8.28;100.00;98370.91;6151769;23;20013;-73
2024/03/28 10:04:14;;;;;;;3.45;1.73;;;;;;;8.35;100.00;98376.59;6124311;23;19919;-75
2024/03/28 10:06:54;;;;;;;2.38;1.65;;;;;;;8.46;100.00;98374.38;6149913;23;20017;-72
2024/03/28 10:09:22;;;;;;;2.17;0.85;;;;;;;8.40;100.00;98379.09;6125822;23;20091;-75
2024/03/28 10:11:49;;;;;;;1.42;1.05;;;;;;;8.36;100.00;98391.50;6126170;23;20017;-73
2024/03/28 10:14:18;;;;;;;2.17;1.10;;;;;;;8.44;100.00;98393.38;6125420;23;20048;-74
2024/03/28 10:16:48;;;;;;;4.50;0.98;;;;;;;8.55;100.00;98387.75;6126085;23;20013;-73
2024/03/28 10:19:27;;;;;;;1.30;0.77;;;;;;;8.61;100.00;98373.94;6148945;23;20059;-74
2024/03/28 10:22:04;;;;;;;2.10;0.85;;;;;;;8.89;100.00;98371.72;6123699;23;20451;-71
2024/03/28 10:24:33;;;;;;;2.20;1.05;;;;;;;9.07;100.00;98364.47;6150105;23;20028;-72
2024/03/28 10:26:59;;;;;;;1.80;1.30;;;;;;;9.36;100.00;98352.31;6100224;23;20104;-73
2024/03/28 10:29:31;;;;;;;1.77;0.93;;;;;;;9.53;100.00;98338.88;6149408;23;20779;-72
2024/03/28 10:32:06;;;;;;;1.92;1.33;;;;;;;9.72;100.00;98343.84;6124031;23;20017;-73
2024/03/28 10:34:31;;;;;;;1.30;0.80;;;;;;;9.73;100.00;98329.38;6149917;23;20045;-73
2024/03/28 10:37:05;;;;;;;1.67;1.20;;;;;;;9.74;100.00;98336.28;6175345;23;20020;-73
2024/03/28 10:39:31;;;;;;;1.48;0.80;;;;;;;9.80;100.00;98340.34;6149198;23;20446;-73
2024/03/28 10:41:59;;;;;;;1.58;1.17;;;;;;;9.84;100.00;98351.97;6149771;23;20051;-75
2024/03/28 10:44:27;;;;;;;2.25;0.90;;;;;;;9.80;100.00;98345.69;6177672;23;20020;-73
2024/03/28 10:46:54;;;;;;;2.13;1.02;;;;;;;9.89;100.00;98332.25;6150336;23;20447;-73
2024/03/28 10:49:27;;;;;;;1.67;1.00;;;;;;;9.87;100.00;98335.25;6176083;23;20009;-73
2024/03/28 10:52:02;;;;;;;2.47;0.90;;;;;;;9.92;100.00;98332.41;6125070;23;20013;-72
2024/03/28 10:54:39;;;;;;;1.95;0.90;;;;;;;10.19;100.00;98341.06;6176199;23;20084;-74
2024/03/28 10:57:06;;;;;;;3.33;1.50;;;;;;;10.12;100.00;98350.38;6148247;23;20534;-73
2024/03/28 10:59:33;;;;;;;2.10;1.00;;;;;;;10.17;100.00;98360.13;6150487;23;20093;-73
2024/03/28 11:02:03;;;;;;;1.92;1.25;;;;;;;10.19;100.00;98346.41;6148350;23;20467;-73
2024/03/28 11:04:29;;;;;;;1.70;1.05;;;;;;;10.19;100.00;98344.50;6149770;23;20013;-74
2024/03/28 11:06:57;;;;;;;3.05;1.10;;;;;;;10.29;100.00;98338.78;6174272;23;20020;-73
2024/03/28 11:09:24;;;;;;;3.75;1.00;;;;;;;10.25;100.00;98339.78;6148759;23;20017;-73
2024/03/28 11:11:56;;;;;;;1.85;1.02;;;;;;;10.41;100.00;98338.09;6100529;23;20005;-73
2024/03/28 11:14:22;;;;;;;1.33;0.85;;;;;;;10.68;100.00;98344.03;6149560;23;20024;-73
2024/03/28 11:16:48;;;;;;;2.30;1.15;;;;;;;10.76;100.00;98348.50;6148747;23;20017;-73
2024/03/28 11:19:16;;;;;;;2.72;2.00;;;;;;;10.66;100.00;98355.06;6171610;23;20021;-72
2024/03/28 11:21:42;;;;;;;3.75;1.15;;;;;;;10.62;100.00;98357.59;6124722;23;20124;-74
2024/03/28 11:24:18;;;;;;;2.60;1.75;;;;;;;10.44;100.00;98366.09;6174769;23;20153;-72
2024/03/28 11:26:53;;;;;;;2.20;1.83;;;;;;;10.44;100.00;98366.09;6150181;23;20013;-73
2024/03/28 11:29:23;;;;;;;1.92;1.42;;;;;;;10.56;100.00;98361.56;6148928;23;20087;-73
2024/03/28 11:31:59;;;;;;;3.40;1.85;;;;;;;10.85;100.00;98358.03;6100770;23;20183;-72